sensor_id;sensor_type;location;lat;lon;timestamp;P1;durP1;ratioP1;P2;durP2;ratioP2
17725;SDS011;8983;53.156;17.960;2023-07-02T00:00:11;4.47;;;3.70;;
17725;SDS011;8983;53.156;17.960;2023-07-02T00:02:41;7.20;;;4.18;;
17725;SDS011;8983;53.156;17.960;2023-07-02T00:05:10;5.47;;;3.78;;
17725;SDS011;8983;53.156;17.960;2023-07-02T00:07:39;4.07;;;3.72;;
17725;SDS011;8983;53.156;17.960;2023-07-02T00:10:07;4.88;;;3.88;;
17725;SDS011;8983;53.156;17.960;2023-07-02T00:12:37;6.18;;;4.00;;
17725;SDS011;8983;53.156;17.960;2023-07-02T00:15:06;5.07;;;3.88;;
17725;SDS011;8983;53.156;17.960;2023-07-02T00:17:34;4.65;;;4.05;;
17725;SDS011;8983;53.156;17.960;2023-07-02T00:20:08;4.75;;;3.95;;
17725;SDS011;8983;53.156;17.960;2023-07-02T00:22:41;4.72;;;3.83;;
17725;SDS011;8983;53.156;17.960;2023-07-02T00:25:12;7.75;;;4.22;;
17725;SDS011;8983;53.156;17.960;2023-07-02T00:27:41;4.38;;;3.88;;
17725;SDS011;8983;53.156;17.960;2023-07-02T00:30:10;4.50;;;3.95;;
17725;SDS011;8983;53.156;17.960;2023-07-02T00:32:38;4.35;;;3.95;;
17725;SDS011;8983;53.156;17.960;2023-07-02T00:35:08;5.63;;;4.00;;
17725;SDS011;8983;53.156;17.960;2023-07-02T00:37:37;4.85;;;4.20;;
17725;SDS011;8983;53.156;17.960;2023-07-02T00:40:05;8.05;;;4.30;;
17725;SDS011;8983;53.156;17.960;2023-07-02T00:42:35;5.68;;;3.90;;
17725;SDS011;8983;53.156;17.960;2023-07-02T00:45:03;5.53;;;4.07;;
17725;SDS011;8983;53.156;17.960;2023-07-02T00:47:34;5.65;;;3.40;;
17725;SDS011;8983;53.156;17.960;2023-07-02T00:50:03;4.57;;;3.60;;
17725;SDS011;8983;53.156;17.960;2023-07-02T00:52:34;4.80;;;3.75;;
17725;SDS011;8983;53.156;17.960;2023-07-02T00:55:02;5.18;;;3.90;;
17725;SDS011;8983;53.156;17.960;2023-07-02T00:57:31;4.25;;;3.85;;
17725;SDS011;8983;53.156;17.960;2023-07-02T00:59:59;4.65;;;3.47;;
17725;SDS011;8983;53.156;17.960;2023-07-02T01:02:29;5.60;;;3.97;;
17725;SDS011;8983;53.156;17.960;2023-07-02T01:04:58;5.78;;;3.92;;
17725;SDS011;8983;53.156;17.960;2023-07-02T01:07:28;5.20;;;4.20;;
17725;SDS011;8983;53.156;17.960;2023-07-02T01:09:57;8.50;;;4.13;;
17725;SDS011;8983;53.156;17.960;2023-07-02T01:12:26;6.38;;;4.20;;
17725;SDS011;8983;53.156;17.960;2023-07-02T01:14:56;4.13;;;3.70;;
17725;SDS011;8983;53.156;17.960;2023-07-02T01:17:28;4.90;;;4.35;;
17725;SDS011;8983;53.156;17.960;2023-07-02T01:20:06;6.00;;;4.00;;
17725;SDS011;8983;53.156;17.960;2023-07-02T01:22:36;4.95;;;3.83;;
17725;SDS011;8983;53.156;17.960;2023-07-02T01:25:05;6.15;;;4.22;;
17725;SDS011;8983;53.156;17.960;2023-07-02T01:27:36;5.28;;;4.25;;
17725;SDS011;8983;53.156;17.960;2023-07-02T01:30:05;4.77;;;3.80;;
17725;SDS011;8983;53.156;17.960;2023-07-02T01:32:36;4.20;;;3.80;;
17725;SDS011;8983;53.156;17.960;2023-07-02T01:35:07;5.28;;;3.88;;
17725;SDS011;8983;53.156;17.960;2023-07-02T01:37:36;4.63;;;3.95;;
17725;SDS011;8983;53.156;17.960;2023-07-02T01:40:05;4.05;;;3.75;;
17725;SDS011;8983;53.156;17.960;2023-07-02T01:42:34;8.43;;;4.00;;
17725;SDS011;8983;53.156;17.960;2023-07-02T01:45:03;6.60;;;4.03;;
17725;SDS011;8983;53.156;17.960;2023-07-02T01:47:32;4.30;;;3.38;;
17725;SDS011;8983;53.156;17.960;2023-07-02T01:50:01;4.53;;;3.60;;
17725;SDS011;8983;53.156;17.960;2023-07-02T01:52:33;4.80;;;3.90;;
17725;SDS011;8983;53.156;17.960;2023-07-02T01:55:01;7.00;;;3.90;;
17725;SDS011;8983;53.156;17.960;2023-07-02T01:57:30;6.05;;;3.80;;
17725;SDS011;8983;53.156;17.960;2023-07-02T01:59:59;4.10;;;3.70;;
17725;SDS011;8983;53.156;17.960;2023-07-02T02:02:27;5.40;;;3.47;;
17725;SDS011;8983;53.156;17.960;2023-07-02T02:04:56;6.53;;;4.30;;
17725;SDS011;8983;53.156;17.960;2023-07-02T02:07:24;6.90;;;3.60;;
17725;SDS011;8983;53.156;17.960;2023-07-02T02:09:54;4.07;;;3.67;;
17725;SDS011;8983;53.156;17.960;2023-07-02T02:12:22;4.53;;;3.50;;
17725;SDS011;8983;53.156;17.960;2023-07-02T02:14:51;5.33;;;3.23;;
17725;SDS011;8983;53.156;17.960;2023-07-02T02:17:19;5.97;;;4.17;;
17725;SDS011;8983;53.156;17.960;2023-07-02T02:19:47;4.80;;;3.67;;
17725;SDS011;8983;53.156;17.960;2023-07-02T02:22:17;6.67;;;3.70;;
17725;SDS011;8983;53.156;17.960;2023-07-02T02:24:45;5.30;;;3.33;;
17725;SDS011;8983;53.156;17.960;2023-07-02T02:27:15;5.10;;;3.77;;
17725;SDS011;8983;53.156;17.960;2023-07-02T02:29:44;5.43;;;3.97;;
17725;SDS011;8983;53.156;17.960;2023-07-02T02:32:12;3.90;;;3.50;;
17725;SDS011;8983;53.156;17.960;2023-07-02T02:34:41;4.53;;;3.63;;
17725;SDS011;8983;53.156;17.960;2023-07-02T02:37:10;6.00;;;3.63;;
17725;SDS011;8983;53.156;17.960;2023-07-02T02:39:38;4.10;;;3.70;;
17725;SDS011;8983;53.156;17.960;2023-07-02T02:42:07;3.97;;;3.23;;
17725;SDS011;8983;53.156;17.960;2023-07-02T02:44:37;6.47;;;3.73;;
17725;SDS011;8983;53.156;17.960;2023-07-02T02:47:06;5.30;;;4.00;;
17725;SDS011;8983;53.156;17.960;2023-07-02T02:49:36;5.20;;;4.00;;
17725;SDS011;8983;53.156;17.960;2023-07-02T02:52:05;4.50;;;4.10;;
17725;SDS011;8983;53.156;17.960;2023-07-02T02:54:34;8.37;;;4.17;;
17725;SDS011;8983;53.156;17.960;2023-07-02T02:57:03;5.80;;;4.23;;
17725;SDS011;8983;53.156;17.960;2023-07-02T02:59:31;6.20;;;4.13;;
17725;SDS011;8983;53.156;17.960;2023-07-02T03:02:01;5.90;;;4.23;;
17725;SDS011;8983;53.156;17.960;2023-07-02T03:04:30;5.70;;;3.90;;
17725;SDS011;8983;53.156;17.960;2023-07-02T03:06:59;6.40;;;3.70;;
17725;SDS011;8983;53.156;17.960;2023-07-02T03:09:27;7.37;;;4.07;;
17725;SDS011;8983;53.156;17.960;2023-07-02T03:11:55;5.00;;;4.10;;
17725;SDS011;8983;53.156;17.960;2023-07-02T03:14:24;5.17;;;3.90;;
17725;SDS011;8983;53.156;17.960;2023-07-02T03:16:52;6.13;;;3.90;;
17725;SDS011;8983;53.156;17.960;2023-07-02T03:19:22;5.60;;;3.60;;
17725;SDS011;8983;53.156;17.960;2023-07-02T03:21:51;4.20;;;3.73;;
17725;SDS011;8983;53.156;17.960;2023-07-02T03:24:19;6.10;;;3.90;;
17725;SDS011;8983;53.156;17.960;2023-07-02T03:26:48;4.47;;;3.67;;
17725;SDS011;8983;53.156;17.960;2023-07-02T03:29:16;6.17;;;3.70;;
17725;SDS011;8983;53.156;17.960;2023-07-02T03:31:46;4.80;;;3.70;;
17725;SDS011;8983;53.156;17.960;2023-07-02T03:34:15;4.20;;;3.80;;
17725;SDS011;8983;53.156;17.960;2023-07-02T03:36:45;3.30;;;3.00;;
17725;SDS011;8983;53.156;17.960;2023-07-02T03:39:13;5.33;;;3.47;;
17725;SDS011;8983;53.156;17.960;2023-07-02T03:41:43;4.63;;;3.43;;
17725;SDS011;8983;53.156;17.960;2023-07-02T03:44:11;3.83;;;3.07;;
17725;SDS011;8983;53.156;17.960;2023-07-02T03:46:40;4.83;;;3.07;;
17725;SDS011;8983;53.156;17.960;2023-07-02T03:49:08;3.73;;;3.27;;
17725;SDS011;8983;53.156;17.960;2023-07-02T03:51:37;3.90;;;3.43;;
17725;SDS011;8983;53.156;17.960;2023-07-02T03:54:07;3.83;;;2.60;;
17725;SDS011;8983;53.156;17.960;2023-07-02T03:56:35;4.77;;;3.07;;
17725;SDS011;8983;53.156;17.960;2023-07-02T03:59:04;3.37;;;2.80;;
17725;SDS011;8983;53.156;17.960;2023-07-02T04:01:32;3.93;;;2.90;;
17725;SDS011;8983;53.156;17.960;2023-07-02T04:04:01;3.40;;;2.90;;
17725;SDS011;8983;53.156;17.960;2023-07-02T04:06:29;3.25;;;2.58;;
17725;SDS011;8983;53.156;17.960;2023-07-02T04:08:58;3.63;;;2.67;;
17725;SDS011;8983;53.156;17.960;2023-07-02T04:11:28;4.73;;;3.10;;
17725;SDS011;8983;53.156;17.960;2023-07-02T04:13:56;4.30;;;3.00;;
17725;SDS011;8983;53.156;17.960;2023-07-02T04:16:25;5.67;;;2.73;;
17725;SDS011;8983;53.156;17.960;2023-07-02T04:18:53;3.57;;;2.27;;
17725;SDS011;8983;53.156;17.960;2023-07-02T04:21:21;4.30;;;2.93;;
17725;SDS011;8983;53.156;17.960;2023-07-02T04:23:50;3.33;;;2.77;;
17725;SDS011;8983;53.156;17.960;2023-07-02T04:26:19;3.23;;;2.70;;
17725;SDS011;8983;53.156;17.960;2023-07-02T04:29:08;5.30;;;2.50;;
17725;SDS011;8983;53.156;17.960;2023-07-02T04:31:37;4.50;;;2.57;;
17725;SDS011;8983;53.156;17.960;2023-07-02T04:34:06;4.27;;;2.60;;
17725;SDS011;8983;53.156;17.960;2023-07-02T04:36:34;2.93;;;2.63;;
17725;SDS011;8983;53.156;17.960;2023-07-02T04:39:03;3.93;;;2.73;;
17725;SDS011;8983;53.156;17.960;2023-07-02T04:41:31;4.33;;;2.80;;
17725;SDS011;8983;53.156;17.960;2023-07-02T04:44:00;3.13;;;2.63;;
17725;SDS011;8983;53.156;17.960;2023-07-02T04:46:30;2.97;;;2.67;;
17725;SDS011;8983;53.156;17.960;2023-07-02T04:48:59;3.50;;;2.90;;
17725;SDS011;8983;53.156;17.960;2023-07-02T04:51:28;4.27;;;3.00;;
17725;SDS011;8983;53.156;17.960;2023-07-02T04:53:56;3.97;;;2.80;;
17725;SDS011;8983;53.156;17.960;2023-07-02T04:56:24;4.17;;;2.93;;
17725;SDS011;8983;53.156;17.960;2023-07-02T04:58:53;3.40;;;3.10;;
17725;SDS011;8983;53.156;17.960;2023-07-02T05:01:21;3.73;;;3.33;;
17725;SDS011;8983;53.156;17.960;2023-07-02T05:03:50;3.87;;;3.10;;
17725;SDS011;8983;53.156;17.960;2023-07-02T05:06:18;6.13;;;3.37;;
17725;SDS011;8983;53.156;17.960;2023-07-02T05:08:47;5.93;;;3.13;;
17725;SDS011;8983;53.156;17.960;2023-07-02T05:11:15;4.40;;;2.60;;
17725;SDS011;8983;53.156;17.960;2023-07-02T05:13:43;2.87;;;2.57;;
17725;SDS011;8983;53.156;17.960;2023-07-02T05:16:11;3.20;;;2.90;;
17725;SDS011;8983;53.156;17.960;2023-07-02T05:18:39;2.70;;;2.47;;
17725;SDS011;8983;53.156;17.960;2023-07-02T05:21:09;3.47;;;2.90;;
17725;SDS011;8983;53.156;17.960;2023-07-02T05:23:37;2.77;;;2.57;;
17725;SDS011;8983;53.156;17.960;2023-07-02T05:26:05;3.03;;;2.73;;
17725;SDS011;8983;53.156;17.960;2023-07-02T05:28:33;2.60;;;2.40;;
17725;SDS011;8983;53.156;17.960;2023-07-02T05:31:01;2.70;;;2.50;;
17725;SDS011;8983;53.156;17.960;2023-07-02T05:33:30;3.47;;;2.67;;
17725;SDS011;8983;53.156;17.960;2023-07-02T05:35:59;2.97;;;2.67;;
17725;SDS011;8983;53.156;17.960;2023-07-02T05:38:29;2.50;;;2.00;;
17725;SDS011;8983;53.156;17.960;2023-07-02T05:40:57;3.03;;;2.30;;
17725;SDS011;8983;53.156;17.960;2023-07-02T05:43:25;2.60;;;2.40;;
17725;SDS011;8983;53.156;17.960;2023-07-02T05:45:53;2.83;;;2.07;;
17725;SDS011;8983;53.156;17.960;2023-07-02T05:48:22;2.27;;;2.07;;
17725;SDS011;8983;53.156;17.960;2023-07-02T05:50:50;2.30;;;2.10;;
17725;SDS011;8983;53.156;17.960;2023-07-02T05:53:18;2.47;;;2.10;;
17725;SDS011;8983;53.156;17.960;2023-07-02T05:55:48;2.20;;;1.80;;
17725;SDS011;8983;53.156;17.960;2023-07-02T05:58:16;2.33;;;2.07;;
17725;SDS011;8983;53.156;17.960;2023-07-02T06:00:45;2.23;;;2.03;;
17725;SDS011;8983;53.156;17.960;2023-07-02T06:03:16;2.43;;;2.23;;
17725;SDS011;8983;53.156;17.960;2023-07-02T06:05:47;2.40;;;2.20;;
17725;SDS011;8983;53.156;17.960;2023-07-02T06:08:16;2.50;;;2.30;;
17725;SDS011;8983;53.156;17.960;2023-07-02T06:10:45;2.20;;;2.00;;
17725;SDS011;8983;53.156;17.960;2023-07-02T06:13:15;1.60;;;1.50;;
17725;SDS011;8983;53.156;17.960;2023-07-02T06:15:44;2.00;;;1.83;;
17725;SDS011;8983;53.156;17.960;2023-07-02T06:18:13;2.57;;;2.10;;
17725;SDS011;8983;53.156;17.960;2023-07-02T06:20:43;2.30;;;2.10;;
17725;SDS011;8983;53.156;17.960;2023-07-02T06:23:13;2.00;;;1.80;;
17725;SDS011;8983;53.156;17.960;2023-07-02T06:25:42;2.03;;;1.77;;
17725;SDS011;8983;53.156;17.960;2023-07-02T06:28:11;2.13;;;1.80;;
17725;SDS011;8983;53.156;17.960;2023-07-02T06:30:40;3.00;;;2.20;;
17725;SDS011;8983;53.156;17.960;2023-07-02T06:33:08;2.50;;;2.30;;
17725;SDS011;8983;53.156;17.960;2023-07-02T06:35:36;3.40;;;2.17;;
17725;SDS011;8983;53.156;17.960;2023-07-02T06:38:04;2.27;;;2.03;;
17725;SDS011;8983;53.156;17.960;2023-07-02T06:40:33;3.83;;;2.23;;
17725;SDS011;8983;53.156;17.960;2023-07-02T06:43:01;2.30;;;2.10;;
17725;SDS011;8983;53.156;17.960;2023-07-02T06:45:31;3.40;;;2.20;;
17725;SDS011;8983;53.156;17.960;2023-07-02T06:47:59;3.93;;;2.07;;
17725;SDS011;8983;53.156;17.960;2023-07-02T06:50:28;3.60;;;2.10;;
17725;SDS011;8983;53.156;17.960;2023-07-02T06:52:56;2.53;;;1.80;;
17725;SDS011;8983;53.156;17.960;2023-07-02T06:55:24;2.30;;;2.10;;
17725;SDS011;8983;53.156;17.960;2023-07-02T06:57:52;3.93;;;2.33;;
17725;SDS011;8983;53.156;17.960;2023-07-02T07:00:21;3.97;;;2.30;;
17725;SDS011;8983;53.156;17.960;2023-07-02T07:02:50;2.43;;;2.10;;
17725;SDS011;8983;53.156;17.960;2023-07-02T07:05:19;4.20;;;2.10;;
17725;SDS011;8983;53.156;17.960;2023-07-02T07:07:47;2.30;;;2.10;;
17725;SDS011;8983;53.156;17.960;2023-07-02T07:10:15;3.07;;;2.10;;
17725;SDS011;8983;53.156;17.960;2023-07-02T07:12:46;2.80;;;2.23;;
17725;SDS011;8983;53.156;17.960;2023-07-02T07:15:14;3.30;;;2.03;;
17725;SDS011;8983;53.156;17.960;2023-07-02T07:17:43;2.60;;;1.97;;
17725;SDS011;8983;53.156;17.960;2023-07-02T07:20:13;5.18;;;2.40;;
17725;SDS011;8983;53.156;17.960;2023-07-02T07:22:41;2.07;;;1.97;;
17725;SDS011;8983;53.156;17.960;2023-07-02T07:25:09;2.60;;;2.23;;
17725;SDS011;8983;53.156;17.960;2023-07-02T07:27:38;2.07;;;1.87;;
17725;SDS011;8983;53.156;17.960;2023-07-02T07:30:06;2.93;;;2.10;;
17725;SDS011;8983;53.156;17.960;2023-07-02T07:32:35;2.33;;;1.97;;
17725;SDS011;8983;53.156;17.960;2023-07-02T07:35:04;6.77;;;2.20;;
17725;SDS011;8983;53.156;17.960;2023-07-02T07:37:34;2.97;;;2.00;;
17725;SDS011;8983;53.156;17.960;2023-07-02T07:40:03;3.05;;;2.10;;
17725;SDS011;8983;53.156;17.960;2023-07-02T07:42:33;2.40;;;2.20;;
17725;SDS011;8983;53.156;17.960;2023-07-02T07:45:01;4.55;;;2.05;;
17725;SDS011;8983;53.156;17.960;2023-07-02T07:47:30;3.28;;;2.33;;
17725;SDS011;8983;53.156;17.960;2023-07-02T07:49:58;2.67;;;2.30;;
17725;SDS011;8983;53.156;17.960;2023-07-02T07:52:27;2.15;;;1.98;;
17725;SDS011;8983;53.156;17.960;2023-07-02T07:54:56;3.17;;;1.92;;
17725;SDS011;8983;53.156;17.960;2023-07-02T07:57:25;2.35;;;2.03;;
17725;SDS011;8983;53.156;17.960;2023-07-02T07:59:53;2.72;;;2.17;;
17725;SDS011;8983;53.156;17.960;2023-07-02T08:02:21;2.80;;;2.05;;
17725;SDS011;8983;53.156;17.960;2023-07-02T08:04:50;3.03;;;2.30;;
17725;SDS011;8983;53.156;17.960;2023-07-02T08:07:19;2.28;;;2.08;;
17725;SDS011;8983;53.156;17.960;2023-07-02T08:09:47;2.15;;;1.90;;
17725;SDS011;8983;53.156;17.960;2023-07-02T08:12:17;2.90;;;1.93;;
17725;SDS011;8983;53.156;17.960;2023-07-02T08:14:46;2.20;;;2.00;;
17725;SDS011;8983;53.156;17.960;2023-07-02T08:17:14;3.37;;;2.00;;
17725;SDS011;8983;53.156;17.960;2023-07-02T08:19:42;3.67;;;2.25;;
17725;SDS011;8983;53.156;17.960;2023-07-02T08:22:10;2.33;;;1.77;;
17725;SDS011;8983;53.156;17.960;2023-07-02T08:24:39;3.45;;;2.22;;
17725;SDS011;8983;53.156;17.960;2023-07-02T08:27:09;2.53;;;1.90;;
17725;SDS011;8983;53.156;17.960;2023-07-02T08:29:41;2.83;;;1.85;;
17725;SDS011;8983;53.156;17.960;2023-07-02T08:32:11;3.63;;;1.83;;
17725;SDS011;8983;53.156;17.960;2023-07-02T08:34:40;6.83;;;2.10;;
17725;SDS011;8983;53.156;17.960;2023-07-02T08:37:08;3.00;;;1.80;;
17725;SDS011;8983;53.156;17.960;2023-07-02T08:39:36;2.53;;;1.80;;
17725;SDS011;8983;53.156;17.960;2023-07-02T08:42:06;2.45;;;1.98;;
17725;SDS011;8983;53.156;17.960;2023-07-02T08:44:35;1.90;;;1.70;;
17725;SDS011;8983;53.156;17.960;2023-07-02T08:47:05;2.10;;;1.90;;
17725;SDS011;8983;53.156;17.960;2023-07-02T08:49:33;7.38;;;2.03;;
17725;SDS011;8983;53.156;17.960;2023-07-02T08:52:02;2.42;;;1.90;;
17725;SDS011;8983;53.156;17.960;2023-07-02T08:54:30;5.07;;;2.20;;
17725;SDS011;8983;53.156;17.960;2023-07-02T08:56:58;2.22;;;1.95;;
17725;SDS011;8983;53.156;17.960;2023-07-02T08:59:31;1.98;;;1.75;;
17725;SDS011;8983;53.156;17.960;2023-07-02T09:02:00;3.15;;;2.03;;
17725;SDS011;8983;53.156;17.960;2023-07-02T09:04:29;2.90;;;1.88;;
17725;SDS011;8983;53.156;17.960;2023-07-02T09:07:04;3.03;;;1.90;;
17725;SDS011;8983;53.156;17.960;2023-07-02T09:09:33;2.72;;;1.58;;
17725;SDS011;8983;53.156;17.960;2023-07-02T09:12:21;2.95;;;1.90;;
17725;SDS011;8983;53.156;17.960;2023-07-02T09:14:54;3.60;;;2.08;;
17725;SDS011;8983;53.156;17.960;2023-07-02T09:17:27;4.72;;;2.13;;
17725;SDS011;8983;53.156;17.960;2023-07-02T09:19:58;3.03;;;2.00;;
17725;SDS011;8983;53.156;17.960;2023-07-02T09:22:28;2.75;;;2.00;;
17725;SDS011;8983;53.156;17.960;2023-07-02T09:24:57;2.83;;;1.67;;
17725;SDS011;8983;53.156;17.960;2023-07-02T09:27:33;2.30;;;2.00;;
17725;SDS011;8983;53.156;17.960;2023-07-02T09:30:06;3.95;;;1.85;;
17725;SDS011;8983;53.156;17.960;2023-07-02T09:32:36;3.58;;;2.50;;
17725;SDS011;8983;53.156;17.960;2023-07-02T09:35:07;2.50;;;2.10;;
17725;SDS011;8983;53.156;17.960;2023-07-02T09:37:35;2.40;;;2.20;;
17725;SDS011;8983;53.156;17.960;2023-07-02T09:40:04;4.43;;;2.28;;
17725;SDS011;8983;53.156;17.960;2023-07-02T09:42:36;2.72;;;2.03;;
17725;SDS011;8983;53.156;17.960;2023-07-02T09:45:07;2.95;;;2.05;;
17725;SDS011;8983;53.156;17.960;2023-07-02T09:47:38;6.25;;;3.03;;
17725;SDS011;8983;53.156;17.960;2023-07-02T09:50:13;2.47;;;2.28;;
17725;SDS011;8983;53.156;17.960;2023-07-02T09:52:44;2.60;;;2.28;;
17725;SDS011;8983;53.156;17.960;2023-07-02T09:55:14;2.70;;;2.03;;
17725;SDS011;8983;53.156;17.960;2023-07-02T09:57:43;6.80;;;2.75;;
17725;SDS011;8983;53.156;17.960;2023-07-02T10:00:13;2.88;;;2.20;;
17725;SDS011;8983;53.156;17.960;2023-07-02T10:02:46;3.38;;;2.50;;
17725;SDS011;8983;53.156;17.960;2023-07-02T10:05:26;4.22;;;2.40;;
17725;SDS011;8983;53.156;17.960;2023-07-02T10:07:55;3.28;;;2.00;;
17725;SDS011;8983;53.156;17.960;2023-07-02T10:10:28;2.15;;;1.95;;
17725;SDS011;8983;53.156;17.960;2023-07-02T10:12:56;3.90;;;2.20;;
17725;SDS011;8983;53.156;17.960;2023-07-02T10:15:25;2.70;;;2.25;;
17725;SDS011;8983;53.156;17.960;2023-07-02T10:17:54;2.20;;;2.00;;
17725;SDS011;8983;53.156;17.960;2023-07-02T10:20:34;6.13;;;2.30;;
17725;SDS011;8983;53.156;17.960;2023-07-02T10:23:04;2.20;;;1.83;;
17725;SDS011;8983;53.156;17.960;2023-07-02T10:25:33;3.50;;;1.92;;
17725;SDS011;8983;53.156;17.960;2023-07-02T10:28:13;3.88;;;2.00;;
17725;SDS011;8983;53.156;17.960;2023-07-02T10:30:42;2.70;;;1.77;;
17725;SDS011;8983;53.156;17.960;2023-07-02T10:33:10;2.58;;;2.38;;
17725;SDS011;8983;53.156;17.960;2023-07-02T10:35:41;1.92;;;1.77;;
17725;SDS011;8983;53.156;17.960;2023-07-02T10:38:13;2.58;;;2.35;;
17725;SDS011;8983;53.156;17.960;2023-07-02T10:40:42;3.13;;;1.70;;
17725;SDS011;8983;53.156;17.960;2023-07-02T10:43:10;2.25;;;1.77;;
17725;SDS011;8983;53.156;17.960;2023-07-02T10:45:39;3.50;;;2.22;;
17725;SDS011;8983;53.156;17.960;2023-07-02T10:48:08;2.67;;;2.13;;
17725;SDS011;8983;53.156;17.960;2023-07-02T10:50:36;3.20;;;2.10;;
17725;SDS011;8983;53.156;17.960;2023-07-02T10:53:06;3.00;;;1.98;;
17725;SDS011;8983;53.156;17.960;2023-07-02T10:55:42;2.20;;;1.92;;
17725;SDS011;8983;53.156;17.960;2023-07-02T10:58:11;2.75;;;2.10;;
17725;SDS011;8983;53.156;17.960;2023-07-02T11:00:44;1.98;;;1.80;;
17725;SDS011;8983;53.156;17.960;2023-07-02T11:03:18;3.83;;;2.03;;
17725;SDS011;8983;53.156;17.960;2023-07-02T11:05:48;2.72;;;2.13;;
17725;SDS011;8983;53.156;17.960;2023-07-02T11:08:19;3.00;;;2.10;;
17725;SDS011;8983;53.156;17.960;2023-07-02T11:10:48;2.00;;;1.90;;
17725;SDS011;8983;53.156;17.960;2023-07-02T11:13:19;2.38;;;2.00;;
17725;SDS011;8983;53.156;17.960;2023-07-02T11:15:47;2.55;;;1.90;;
17725;SDS011;8983;53.156;17.960;2023-07-02T11:18:16;3.17;;;2.17;;
17725;SDS011;8983;53.156;17.960;2023-07-02T11:20:47;2.03;;;1.77;;
17725;SDS011;8983;53.156;17.960;2023-07-02T11:23:16;3.95;;;1.98;;
17725;SDS011;8983;53.156;17.960;2023-07-02T11:25:55;3.92;;;2.00;;
17725;SDS011;8983;53.156;17.960;2023-07-02T11:28:24;5.93;;;2.60;;
17725;SDS011;8983;53.156;17.960;2023-07-02T11:30:54;4.93;;;2.00;;
17725;SDS011;8983;53.156;17.960;2023-07-02T11:33:32;5.13;;;2.38;;
17725;SDS011;8983;53.156;17.960;2023-07-02T11:36:01;3.78;;;2.10;;
17725;SDS011;8983;53.156;17.960;2023-07-02T11:38:31;4.40;;;2.35;;
17725;SDS011;8983;53.156;17.960;2023-07-02T11:41:01;4.38;;;2.00;;
17725;SDS011;8983;53.156;17.960;2023-07-02T11:43:30;2.25;;;1.90;;
17725;SDS011;8983;53.156;17.960;2023-07-02T11:45:58;2.72;;;2.10;;
17725;SDS011;8983;53.156;17.960;2023-07-02T11:48:26;1.92;;;1.80;;
17725;SDS011;8983;53.156;17.960;2023-07-02T11:50:55;3.15;;;1.90;;
17725;SDS011;8983;53.156;17.960;2023-07-02T11:53:23;2.25;;;2.00;;
17725;SDS011;8983;53.156;17.960;2023-07-02T11:55:52;2.33;;;2.10;;
17725;SDS011;8983;53.156;17.960;2023-07-02T11:58:20;2.55;;;2.10;;
17725;SDS011;8983;53.156;17.960;2023-07-02T12:00:48;2.08;;;1.88;;
17725;SDS011;8983;53.156;17.960;2023-07-02T12:03:17;1.85;;;1.60;;
17725;SDS011;8983;53.156;17.960;2023-07-02T12:05:45;2.97;;;1.95;;
17725;SDS011;8983;53.156;17.960;2023-07-02T12:08:13;2.70;;;1.80;;
17725;SDS011;8983;53.156;17.960;2023-07-02T12:10:41;2.80;;;2.00;;
17725;SDS011;8983;53.156;17.960;2023-07-02T12:13:11;4.40;;;2.10;;
17725;SDS011;8983;53.156;17.960;2023-07-02T12:15:39;3.90;;;2.03;;
17725;SDS011;8983;53.156;17.960;2023-07-02T12:18:07;4.78;;;2.50;;
17725;SDS011;8983;53.156;17.960;2023-07-02T12:20:36;4.32;;;2.00;;
17725;SDS011;8983;53.156;17.960;2023-07-02T12:23:04;3.17;;;2.20;;
17725;SDS011;8983;53.156;17.960;2023-07-02T12:25:32;2.97;;;2.10;;
17725;SDS011;8983;53.156;17.960;2023-07-02T12:28:01;2.33;;;2.03;;
17725;SDS011;8983;53.156;17.960;2023-07-02T12:30:32;3.15;;;2.00;;
17725;SDS011;8983;53.156;17.960;2023-07-02T12:33:00;2.72;;;2.08;;
17725;SDS011;8983;53.156;17.960;2023-07-02T12:35:29;3.83;;;2.15;;
17725;SDS011;8983;53.156;17.960;2023-07-02T12:37:57;4.75;;;2.40;;
17725;SDS011;8983;53.156;17.960;2023-07-02T12:40:25;3.33;;;2.17;;
17725;SDS011;8983;53.156;17.960;2023-07-02T12:42:53;3.63;;;1.90;;
17725;SDS011;8983;53.156;17.960;2023-07-02T12:45:22;3.63;;;1.92;;
17725;SDS011;8983;53.156;17.960;2023-07-02T12:47:52;5.13;;;2.30;;
17725;SDS011;8983;53.156;17.960;2023-07-02T12:50:20;5.82;;;2.40;;
17725;SDS011;8983;53.156;17.960;2023-07-02T12:52:48;3.10;;;2.10;;
17725;SDS011;8983;53.156;17.960;2023-07-02T12:55:17;3.13;;;2.25;;
17725;SDS011;8983;53.156;17.960;2023-07-02T12:57:45;1.85;;;1.73;;
17725;SDS011;8983;53.156;17.960;2023-07-02T13:00:13;5.60;;;1.88;;
17725;SDS011;8983;53.156;17.960;2023-07-02T13:02:42;3.00;;;2.03;;
17725;SDS011;8983;53.156;17.960;2023-07-02T13:05:29;2.28;;;2.08;;
17725;SDS011;8983;53.156;17.960;2023-07-02T13:07:57;2.65;;;2.13;;
17725;SDS011;8983;53.156;17.960;2023-07-02T13:10:25;4.35;;;2.08;;
17725;SDS011;8983;53.156;17.960;2023-07-02T13:12:53;2.50;;;2.05;;
17725;SDS011;8983;53.156;17.960;2023-07-02T13:15:28;3.88;;;2.50;;
17725;SDS011;8983;53.156;17.960;2023-07-02T13:17:56;5.15;;;2.15;;
17725;SDS011;8983;53.156;17.960;2023-07-02T13:20:25;3.97;;;2.63;;
17725;SDS011;8983;53.156;17.960;2023-07-02T13:22:54;2.97;;;2.25;;
17725;SDS011;8983;53.156;17.960;2023-07-02T13:25:22;4.30;;;2.10;;
17725;SDS011;8983;53.156;17.960;2023-07-02T13:27:50;5.88;;;2.22;;
17725;SDS011;8983;53.156;17.960;2023-07-02T13:30:18;4.40;;;2.50;;
17725;SDS011;8983;53.156;17.960;2023-07-02T13:32:47;4.38;;;2.45;;
17725;SDS011;8983;53.156;17.960;2023-07-02T13:35:15;3.08;;;2.20;;
17725;SDS011;8983;53.156;17.960;2023-07-02T13:37:43;3.55;;;2.38;;
17725;SDS011;8983;53.156;17.960;2023-07-02T13:40:12;3.33;;;2.70;;
17725;SDS011;8983;53.156;17.960;2023-07-02T13:42:41;5.68;;;2.55;;
17725;SDS011;8983;53.156;17.960;2023-07-02T13:45:10;4.38;;;2.55;;
17725;SDS011;8983;53.156;17.960;2023-07-02T13:47:38;4.18;;;2.60;;
17725;SDS011;8983;53.156;17.960;2023-07-02T13:50:07;3.72;;;2.38;;
17725;SDS011;8983;53.156;17.960;2023-07-02T13:52:35;5.68;;;2.70;;
17725;SDS011;8983;53.156;17.960;2023-07-02T13:55:03;4.38;;;2.63;;
17725;SDS011;8983;53.156;17.960;2023-07-02T13:57:34;2.75;;;2.45;;
17725;SDS011;8983;53.156;17.960;2023-07-02T14:00:04;5.20;;;2.63;;
17725;SDS011;8983;53.156;17.960;2023-07-02T14:02:34;3.72;;;2.58;;
17725;SDS011;8983;53.156;17.960;2023-07-02T14:05:02;3.83;;;2.50;;
17725;SDS011;8983;53.156;17.960;2023-07-02T14:07:31;3.50;;;2.20;;
17725;SDS011;8983;53.156;17.960;2023-07-02T14:09:59;3.15;;;2.63;;
17725;SDS011;8983;53.156;17.960;2023-07-02T14:12:27;3.55;;;2.58;;
17725;SDS011;8983;53.156;17.960;2023-07-02T14:14:55;5.57;;;2.80;;
17725;SDS011;8983;53.156;17.960;2023-07-02T14:17:24;4.93;;;3.10;;
17725;SDS011;8983;53.156;17.960;2023-07-02T14:19:52;4.63;;;3.13;;
17725;SDS011;8983;53.156;17.960;2023-07-02T14:22:21;6.40;;;3.00;;
17725;SDS011;8983;53.156;17.960;2023-07-02T14:24:49;3.75;;;2.83;;
17725;SDS011;8983;53.156;17.960;2023-07-02T14:27:17;5.88;;;2.97;;
17725;SDS011;8983;53.156;17.960;2023-07-02T14:29:45;5.57;;;2.80;;
17725;SDS011;8983;53.156;17.960;2023-07-02T14:32:14;6.07;;;2.88;;
17725;SDS011;8983;53.156;17.960;2023-07-02T14:34:44;5.22;;;2.88;;
17725;SDS011;8983;53.156;17.960;2023-07-02T14:37:12;4.53;;;2.95;;
17725;SDS011;8983;53.156;17.960;2023-07-02T14:39:40;7.47;;;3.17;;
17725;SDS011;8983;53.156;17.960;2023-07-02T14:42:26;4.70;;;3.10;;
17725;SDS011;8983;53.156;17.960;2023-07-02T14:44:54;7.60;;;3.28;;
17725;SDS011;8983;53.156;17.960;2023-07-02T14:47:23;4.53;;;3.03;;
17725;SDS011;8983;53.156;17.960;2023-07-02T14:49:52;5.10;;;3.20;;
17725;SDS011;8983;53.156;17.960;2023-07-02T14:52:20;6.25;;;3.10;;
17725;SDS011;8983;53.156;17.960;2023-07-02T14:54:48;4.45;;;2.95;;
17725;SDS011;8983;53.156;17.960;2023-07-02T14:57:16;3.63;;;2.55;;
17725;SDS011;8983;53.156;17.960;2023-07-02T14:59:45;8.57;;;3.38;;